Time;durP1;ratioP1;P1;durP2;ratioP2;P2;SDS_P1;SDS_P2;PMS_P1;PMS_P2;Temp;Humidity;BMP_temperature;BMP_pressure;BME280_temperature;BME280_humidity;BME280_pressure;Samples;Min_cycle;Max_cycle;Signal;HPM_P1;HPM_P2
2021/08/12 00:01:16;;;;;;;6.97;6.27;;;21.20;75.50;;;;;;5076025;28;20490;-74
2021/08/12 00:03:43;;;;;;;5.87;5.37;;;21.20;75.60;;;;;;5076003;28;20817;-74
2021/08/12 00:06:10;;;;;;;50.13;6.40;;;21.20;75.40;;;;;;5075878;28;20495;-74
2021/08/12 00:08:38;;;;;;;6.30;5.70;;;21.10;75.20;;;;;;5075851;28;20455;-74
2021/08/12 00:11:05;;;;;;;5.67;5.20;;;21.20;76.30;;;;;;5075864;28;20471;-74
2021/08/12 00:13:32;;;;;;;6.03;5.43;;;21.10;75.20;;;;;;5075791;28;20494;-74
2021/08/12 00:15:59;;;;;;;8.33;5.77;;;21.10;75.10;;;;;;5075579;28;20493;-74
2021/08/12 00:18:26;;;;;;;6.70;6.03;;;21.00;75.00;;;;;;5075752;28;20449;-74
2021/08/12 00:20:53;;;;;;;6.47;5.83;;;21.00;75.20;;;;;;5075621;28;20444;-74
2021/08/12 00:23:19;;;;;;;5.67;5.20;;;21.00;75.10;;;;;;5074971;28;20463;-74
2021/08/12 00:25:47;;;;;;;6.80;5.20;;;21.00;75.30;;;;;;5075529;28;20460;-74
2021/08/12 00:28:15;;;;;;;7.10;5.83;;;20.90;76.20;;;;;;5075713;28;20459;-74
2021/08/12 00:30:42;;;;;;;7.47;5.63;;;20.90;75.50;;;;;;5082083;28;20443;-74
2021/08/12 00:33:09;;;;;;;11.20;5.37;;;20.90;75.70;;;;;;5079862;28;20451;-74
2021/08/12 00:35:35;;;;;;;6.90;5.73;;;20.90;75.70;;;;;;5075811;28;20480;-74
2021/08/12 00:38:02;;;;;;;6.00;5.03;;;20.90;75.80;;;;;;5075681;28;20452;-74
2021/08/12 00:40:31;;;;;;;7.60;5.40;;;20.80;75.70;;;;;;5075541;28;20436;-74
2021/08/12 00:42:59;;;;;;;5.60;4.83;;;20.80;75.80;;;;;;5075603;28;20445;-74
2021/08/12 00:45:26;;;;;;;6.30;5.70;;;20.80;75.70;;;;;;5075243;28;20456;-74
2021/08/12 00:47:53;;;;;;;9.60;5.23;;;20.80;75.80;;;;;;5075653;28;20447;-74
2021/08/12 00:50:20;;;;;;;5.97;5.43;;;20.80;75.90;;;;;;5075333;28;20444;-74
2021/08/12 00:52:47;;;;;;;7.10;6.40;;;20.80;75.90;;;;;;5075195;28;20447;-74
2021/08/12 00:55:13;;;;;;;7.90;6.93;;;20.80;76.10;;;;;;5074896;28;20962;-74
2021/08/12 00:57:40;;;;;;;7.00;6.40;;;20.70;76.10;;;;;;5074920;28;20487;-74
2021/08/12 01:00:10;;;;;;;6.10;5.50;;;20.70;76.30;;;;;;5074545;28;20815;-74
2021/08/12 01:02:38;;;;;;;6.10;4.80;;;20.60;76.60;;;;;;5074853;28;20452;-74
2021/08/12 01:05:08;;;;;;;8.80;5.40;;;20.60;77.00;;;;;;5074602;28;20927;-74
2021/08/12 01:07:45;;;;;;;6.20;5.60;;;20.60;77.10;;;;;;5074720;28;20453;-74
2021/08/12 01:10:18;;;;;;;10.23;5.53;;;20.50;76.90;;;;;;5074849;28;20428;-74
2021/08/12 01:12:54;;;;;;;7.03;5.40;;;20.50;77.00;;;;;;5074695;28;20463;-74
2021/08/12 01:15:30;;;;;;;8.83;5.00;;;20.40;76.80;;;;;;5074463;28;20433;-74
2021/08/12 01:18:06;;;;;;;5.13;4.73;;;20.40;77.70;;;;;;5074590;28;20428;-74
2021/08/12 01:21:04;;;;;;;6.40;5.80;;;20.40;76.80;;;;;;5074632;28;20436;-74
2021/08/12 01:23:31;;;;;;;5.57;5.07;;;20.40;76.80;;;;;;5074131;28;20842;-74
2021/08/12 01:26:01;;;;;;;6.30;5.70;;;20.30;76.70;;;;;;5074340;28;20456;-74
2021/08/12 01:28:31;;;;;;;7.47;5.57;;;20.30;76.80;;;;;;5074588;28;20449;-74
2021/08/12 01:31:19;;;;;;;5.77;5.23;;;20.30;76.70;;;;;;5074291;28;20424;-74
2021/08/12 01:33:56;;;;;;;5.17;4.60;;;20.30;76.50;;;;;;5073145;28;20823;-74
2021/08/12 01:36:25;;;;;;;5.97;5.17;;;20.20;76.40;;;;;;5074305;28;20472;-74
2021/08/12 01:38:53;;;;;;;6.47;5.60;;;20.30;76.50;;;;;;5074140;28;20810;-74
2021/08/12 01:41:21;;;;;;;6.80;6.10;;;20.20;76.50;;;;;;5073824;28;20926;-74
2021/08/12 01:43:48;;;;;;;6.10;5.50;;;20.20;76.40;;;;;;5074020;28;20441;-74
2021/08/12 01:46:16;;;;;;;8.50;5.50;;;20.10;76.50;;;;;;5073606;28;20456;-74
2021/08/12 01:48:43;;;;;;;8.23;5.80;;;20.10;76.80;;;;;;5073658;28;20955;-74
2021/08/12 01:51:10;;;;;;;5.73;4.70;;;20.00;76.80;;;;;;5073947;28;20448;-74
2021/08/12 01:53:39;;;;;;;7.97;5.90;;;20.00;77.30;;;;;;5073884;28;20452;-74
2021/08/12 01:56:07;;;;;;;9.13;5.10;;;19.90;77.80;;;;;;5073710;28;20487;-74
2021/08/12 01:58:37;;;;;;;10.47;5.60;;;19.90;77.90;;;;;;5073873;28;20441;-74
2021/08/12 02:01:03;;;;;;;11.93;5.70;;;19.90;77.80;;;;;;5073751;28;20483;-74
2021/08/12 02:03:30;;;;;;;12.87;5.20;;;19.90;77.80;;;;;;5073760;28;20448;-74
2021/08/12 02:05:58;;;;;;;14.30;6.97;;;19.90;77.80;;;;;;5073891;28;20464;-74
2021/08/12 02:08:25;;;;;;;11.30;6.60;;;19.90;77.90;;;;;;5073704;28;20441;-74
2021/08/12 02:10:53;;;;;;;10.40;6.90;;;19.90;78.00;;;;;;5073900;28;20436;-74
2021/08/12 02:13:22;;;;;;;10.53;6.80;;;19.90;78.10;;;;;;5074150;28;20444;-74
2021/08/12 02:15:48;;;;;;;6.87;6.17;;;19.90;78.00;;;;;;5073129;28;20464;-74
2021/08/12 02:18:15;;;;;;;12.33;7.20;;;19.80;78.00;;;;;;5073593;28;20448;-74
2021/08/12 02:20:43;;;;;;;15.80;6.87;;;19.80;78.20;;;;;;5073601;28;20448;-74
2021/08/12 02:23:15;;;;;;;10.93;6.60;;;19.80;78.20;;;;;;5073162;28;20492;-74
2021/08/12 02:25:47;;;;;;;16.50;6.50;;;19.80;78.30;;;;;;5073698;28;20460;-74
2021/08/12 02:28:17;;;;;;;11.93;6.70;;;19.80;78.40;;;;;;5073516;28;20502;-74
2021/08/12 02:30:44;;;;;;;12.93;6.87;;;19.80;78.40;;;;;;5073431;28;20448;-74
2021/08/12 02:33:15;;;;;;;13.03;6.20;;;19.70;78.60;;;;;;5073131;28;20926;-74
2021/08/12 02:35:43;;;;;;;12.63;6.73;;;19.70;79.00;;;;;;5073287;28;20468;-74
2021/08/12 02:38:14;;;;;;;12.17;7.70;;;19.70;79.30;;;;;;5073293;28;20480;-74
2021/08/12 02:40:42;;;;;;;14.30;6.37;;;19.70;79.60;;;;;;5073378;28;20432;-74
2021/08/12 02:43:10;;;;;;;16.70;8.40;;;19.70;80.00;;;;;;5073019;28;20832;-74
2021/08/12 02:45:39;;;;;;;19.23;7.97;;;19.80;80.20;;;;;;5075528;28;20452;-74
2021/08/12 02:48:09;;;;;;;19.37;8.20;;;19.80;80.30;;;;;;5077382;28;20452;-74
2021/08/12 02:50:38;;;;;;;15.17;7.90;;;19.80;80.40;;;;;;5077358;28;20518;-74
2021/08/12 02:53:05;;;;;;;14.40;7.87;;;19.80;80.60;;;;;;5077528;28;20452;-74
2021/08/12 02:55:32;;;;;;;15.67;7.77;;;19.80;80.70;;;;;;5077132;28;20799;-74
2021/08/12 02:58:00;;;;;;;18.67;7.37;;;19.80;80.80;;;;;;5077117;28;20487;-74
2021/08/12 03:00:26;;;;;;;14.33;7.30;;;19.80;80.70;;;;;;5077213;28;20424;-74
2021/08/12 03:02:56;;;;;;;16.77;7.47;;;19.80;80.70;;;;;;5076765;28;20441;-74
2021/08/12 03:05:23;;;;;;;18.43;7.90;;;19.80;80.70;;;;;;5076934;28;20456;-74
2021/08/12 03:07:50;;;;;;;10.43;6.53;;;19.80;80.60;;;;;;5076957;28;20492;-73
2021/08/12 03:10:19;;;;;;;10.60;6.63;;;19.80;80.50;;;;;;5076954;28;20908;-74
2021/08/12 03:12:47;;;;;;;27.00;7.17;;;19.80;80.60;;;;;;5076933;28;20448;-74
2021/08/12 03:15:15;;;;;;;13.93;7.17;;;19.80;80.70;;;;;;5076808;28;20467;-73
2021/08/12 03:17:42;;;;;;;14.60;7.23;;;19.80;80.60;;;;;;5076641;28;20849;-73
2021/08/12 03:20:12;;;;;;;16.90;7.50;;;19.80;80.60;;;;;;5077558;28;20445;-73
2021/08/12 03:22:39;;;;;;;17.70;7.60;;;19.80;80.40;;;;;;5076191;28;20458;-74
2021/08/12 03:25:07;;;;;;;13.40;8.80;;;19.70;80.30;;;;;;5076603;28;20441;-73
2021/08/12 03:27:33;;;;;;;9.90;6.50;;;19.70;80.30;;;;;;5076566;28;20461;-73
2021/08/12 03:30:00;;;;;;;20.33;7.43;;;19.70;80.30;;;;;;5076517;28;20448;-74
2021/08/12 03:32:27;;;;;;;18.70;7.20;;;19.50;80.10;;;;;;5076558;28;20448;-73
2021/08/12 03:34:53;;;;;;;17.47;7.03;;;19.40;80.40;;;;;;5076214;28;20939;-74
2021/08/12 03:37:21;;;;;;;13.40;6.73;;;19.30;80.80;;;;;;5076260;28;20491;-73
2021/08/12 03:39:48;;;;;;;14.80;6.83;;;19.30;81.60;;;;;;5076830;28;20490;-73
2021/08/12 03:42:15;;;;;;;12.17;6.57;;;19.20;81.90;;;;;;5076655;28;20448;-73
2021/08/12 03:44:41;;;;;;;8.50;5.77;;;19.20;81.80;;;;;;5076299;28;20440;-73
2021/08/12 03:47:08;;;;;;;20.97;6.90;;;19.20;81.50;;;;;;5076334;28;20456;-73
2021/08/12 03:49:35;;;;;;;18.90;7.53;;;19.20;81.40;;;;;;5076276;28;20444;-73
2021/08/12 03:52:02;;;;;;;14.77;7.30;;;19.30;81.50;;;;;;5076190;28;20456;-73
2021/08/12 03:54:31;;;;;;;15.47;7.03;;;19.30;81.20;;;;;;5076173;28;20440;-73
2021/08/12 03:56:58;;;;;;;14.87;7.17;;;19.30;81.10;;;;;;5075139;28;20480;-73
2021/08/12 03:59:25;;;;;;;11.67;6.50;;;19.20;80.80;;;;;;5076111;28;20440;-73
2021/08/12 04:01:51;;;;;;;10.40;6.53;;;19.20;80.70;;;;;;5076069;28;20934;-73
2021/08/12 04:04:18;;;;;;;10.63;6.80;;;19.20;80.80;;;;;;5076013;28;20452;-73
2021/08/12 04:06:45;;;;;;;13.33;5.80;;;19.20;80.90;;;;;;5075860;28;20812;-73
2021/08/12 04:09:12;;;;;;;10.40;6.80;;;19.20;81.00;;;;;;5075880;28;20455;-73
2021/08/12 04:11:40;;;;;;;10.63;6.80;;;19.30;81.10;;;;;;5075864;28;20810;-73
2021/08/12 04:14:07;;;;;;;13.47;7.60;;;19.30;80.90;;;;;;5075576;28;20943;-73
2021/08/12 04:16:34;;;;;;;14.70;7.27;;;19.30;80.90;;;;;;5075637;28;20468;-73
2021/08/12 04:19:02;;;;;;;15.37;7.50;;;19.30;80.70;;;;;;5076377;28;20501;-73
2021/08/12 04:21:28;;;;;;;17.10;7.20;;;19.20;80.60;;;;;;5076521;28;20476;-73
2021/08/12 04:23:55;;;;;;;11.40;7.30;;;19.30;80.70;;;;;;5075757;28;20850;-73
2021/08/12 04:26:26;;;;;;;15.97;7.20;;;19.20;80.60;;;;;;5075541;28;20465;-73
2021/08/12 04:28:54;;;;;;;18.03;6.73;;;19.20;80.50;;;;;;5075563;28;20429;-73
2021/08/12 04:31:21;;;;;;;13.13;7.07;;;19.20;80.60;;;;;;5075463;28;20448;-73
2021/08/12 04:33:48;;;;;;;13.73;6.60;;;19.20;80.60;;;;;;5075383;28;20447;-73
2021/08/12 04:36:15;;;;;;;15.77;6.63;;;19.20;80.50;;;;;;5075378;28;20484;-73
2021/08/12 04:38:41;;;;;;;15.00;7.10;;;19.20;80.50;;;;;;5075289;28;20480;-73
2021/08/12 04:41:08;;;;;;;16.40;6.30;;;19.20;80.50;;;;;;5075318;28;20476;-73
2021/08/12 04:43:35;;;;;;;15.80;8.17;;;19.20;80.50;;;;;;5074968;28;20448;-73
2021/08/12 04:46:04;;;;;;;15.63;6.13;;;19.20;80.40;;;;;;5075151;28;20507;-73
2021/08/12 04:48:30;;;;;;;13.20;6.37;;;19.20;80.60;;;;;;5075145;28;20453;-73
2021/08/12 04:50:57;;;;;;;14.97;7.53;;;19.10;80.60;;;;;;5075918;28;20763;-73
2021/08/12 04:53:24;;;;;;;16.50;7.40;;;19.10;80.50;;;;;;5075046;28;20421;-73
2021/08/12 04:55:50;;;;;;;12.70;5.83;;;19.10;80.50;;;;;;5074896;28;20496;-73
2021/08/12 04:58:17;;;;;;;19.23;7.20;;;19.10;80.20;;;;;;5074823;28;20480;-73
2021/08/12 05:00:44;;;;;;;9.53;5.77;;;19.10;80.20;;;;;;5074882;28;20444;-73
2021/08/12 05:03:12;;;;;;;12.20;6.27;;;19.10;80.20;;;;;;5074511;28;20437;-73
2021/08/12 05:05:39;;;;;;;11.93;6.40;;;19.10;80.30;;;;;;5074717;28;20835;-73
2021/08/12 05:08:06;;;;;;;12.67;6.10;;;19.10;80.40;;;;;;5074870;28;20463;-73
2021/08/12 05:10:33;;;;;;;12.20;5.80;;;19.10;80.40;;;;;;5074643;28;20791;-73
2021/08/12 05:12:59;;;;;;;10.77;5.60;;;19.10;81.30;;;;;;5074657;28;20440;-73
2021/08/12 05:15:27;;;;;;;12.33;6.20;;;19.20;80.70;;;;;;5074502;28;20440;-73
2021/08/12 05:17:54;;;;;;;12.47;5.90;;;19.20;80.80;;;;;;5074433;28;20525;-73
2021/08/12 05:20:23;;;;;;;17.17;6.70;;;19.20;80.90;;;;;;5074505;28;20441;-73
2021/08/12 05:22:50;;;;;;;13.90;7.23;;;19.20;81.10;;;;;;5074108;28;20495;-73
2021/08/12 05:25:16;;;;;;;13.30;6.43;;;19.30;81.70;;;;;;5074386;28;20444;-73
2021/08/12 05:27:43;;;;;;;15.17;7.40;;;19.30;81.90;;;;;;5073921;28;20457;-73
2021/08/12 05:30:11;;;;;;;12.47;6.83;;;19.40;82.20;;;;;;5074330;28;20810;-73
2021/08/12 05:32:38;;;;;;;15.43;7.50;;;19.40;82.50;;;;;;5074055;28;20983;-73
2021/08/12 05:35:05;;;;;;;20.17;7.47;;;19.50;82.80;;;;;;5073943;28;20946;-73
2021/08/12 05:37:33;;;;;;;13.60;7.40;;;19.50;83.30;;;;;;5074010;28;20480;-73
2021/08/12 05:40:00;;;;;;;11.97;6.70;;;19.60;83.80;;;;;;5074115;28;20449;-73
2021/08/12 05:42:26;;;;;;;17.63;7.80;;;19.60;83.90;;;;;;5074261;28;20444;-73
2021/08/12 05:44:53;;;;;;;14.30;8.73;;;19.70;84.10;;;;;;5073992;28;20455;-73
2021/08/12 05:47:20;;;;;;;21.53;10.20;;;19.70;84.30;;;;;;5073903;28;20456;-73
2021/08/12 05:49:46;;;;;;;19.20;10.63;;;19.80;84.40;;;;;;5073696;28;20942;-73
2021/08/12 05:52:13;;;;;;;15.70;10.97;;;19.80;84.30;;;;;;5073875;28;20471;-73
2021/08/12 05:54:42;;;;;;;18.10;10.70;;;19.90;84.40;;;;;;5073823;28;20452;-73
2021/08/12 05:57:08;;;;;;;16.47;9.67;;;20.00;84.80;;;;;;5073605;28;20472;-73
2021/08/12 05:59:35;;;;;;;20.90;12.20;;;20.10;85.00;;;;;;5073765;28;20445;-73
2021/08/12 06:02:02;;;;;;;17.37;10.43;;;20.20;84.80;;;;;;5073786;28;20440;-73
2021/08/12 06:04:28;;;;;;;19.47;12.60;;;20.20;84.70;;;;;;5073712;28;20468;-73
2021/08/12 06:06:55;;;;;;;17.00;11.90;;;20.30;85.10;;;;;;5073620;28;20461;-73
2021/08/12 06:09:22;;;;;;;14.40;9.97;;;20.40;85.20;;;;;;5073650;28;20449;-73
2021/08/12 06:11:50;;;;;;;16.00;11.30;;;20.40;85.10;;;;;;5073625;28;20452;-73
2021/08/12 06:14:16;;;;;;;13.53;9.20;;;20.50;85.00;;;;;;5073611;28;20440;-73
2021/08/12 06:16:43;;;;;;;13.80;9.67;;;20.60;85.30;;;;;;5073541;28;20461;-73
2021/08/12 06:19:10;;;;;;;12.50;8.80;;;20.70;85.50;;;;;;5072915;28;20896;-73
2021/08/12 06:21:36;;;;;;;13.77;10.57;;;20.80;85.00;;;;;;5073324;28;20452;-73
2021/08/12 06:24:03;;;;;;;12.00;10.80;;;20.80;84.90;;;;;;5073546;28;20436;-73
2021/08/12 06:26:30;;;;;;;17.33;9.80;;;20.90;85.10;;;;;;5073400;28;20472;-73
2021/08/12 06:28:58;;;;;;;18.47;11.13;;;21.00;84.60;;;;;;5073446;28;20444;-73
2021/08/12 06:31:25;;;;;;;17.13;11.13;;;21.00;84.80;;;;;;5073450;28;20454;-73
2021/08/12 06:33:51;;;;;;;13.73;10.90;;;21.20;85.20;;;;;;5073382;28;20455;-73
2021/08/12 06:36:18;;;;;;;12.80;10.40;;;21.30;84.80;;;;;;5073305;28;20473;-73
2021/08/12 06:38:45;;;;;;;12.23;9.93;;;21.50;84.50;;;;;;5073275;28;20477;-73
2021/08/12 06:41:12;;;;;;;14.40;9.60;;;21.60;83.70;;;;;;5073330;28;20452;-73
2021/08/12 06:43:38;;;;;;;15.53;9.07;;;21.80;83.70;;;;;;5073319;28;20447;-73
2021/08/12 06:46:06;;;;;;;19.53;11.47;;;22.00;83.40;;;;;;5072921;28;20473;-73
2021/08/12 06:48:33;;;;;;;19.17;9.57;;;22.10;82.30;;;;;;5072955;28;20935;-73
2021/08/12 06:51:00;;;;;;;13.50;8.77;;;22.30;82.10;;;;;;5073256;28;20444;-73
2021/08/12 06:53:26;;;;;;;11.73;8.80;;;22.40;81.00;;;;;;5072903;28;20532;-73
2021/08/12 06:55:53;;;;;;;12.83;8.03;;;22.50;80.20;;;;;;5072800;28;20978;-73
2021/08/12 06:58:20;;;;;;;8.60;7.50;;;22.60;79.30;;;;;;5073099;28;20483;-73
2021/08/12 07:00:46;;;;;;;10.30;8.73;;;22.70;78.50;;;;;;5072813;28;20445;-73
2021/08/12 07:03:14;;;;;;;14.60;9.30;;;22.80;77.90;;;;;;5073124;28;20448;-74
2021/08/12 07:05:41;;;;;;;13.43;10.47;;;22.90;77.60;;;;;;5072748;28;20461;-74
2021/08/12 07:08:08;;;;;;;13.53;10.97;;;23.00;77.60;;;;;;5073075;28;20446;-74
2021/08/12 07:10:35;;;;;;;12.57;8.70;;;23.10;77.60;;;;;;5073030;28;20498;-74
2021/08/12 07:13:02;;;;;;;10.10;8.27;;;23.20;77.10;;;;;;5072956;28;20440;-73
2021/08/12 07:15:29;;;;;;;10.83;7.53;;;23.30;76.20;;;;;;5072942;28;20456;-74
2021/08/12 07:17:56;;;;;;;10.37;8.53;;;23.40;75.70;;;;;;5072898;28;20476;-74
2021/08/12 07:20:24;;;;;;;10.50;8.80;;;23.50;75.30;;;;;;5072935;28;20448;-74
2021/08/12 07:22:51;;;;;;;9.73;8.00;;;23.50;75.20;;;;;;5072639;28;20448;-74
2021/08/12 07:25:17;;;;;;;15.07;11.63;;;23.60;74.60;;;;;;5072930;28;20441;-74
2021/08/12 07:27:48;;;;;;;10.83;8.97;;;23.70;74.20;;;;;;5072806;28;20461;-74
2021/08/12 07:30:15;;;;;;;11.13;8.40;;;23.80;74.10;;;;;;5072901;28;20436;-74
2021/08/12 07:32:42;;;;;;;12.80;8.13;;;23.80;74.00;;;;;;5074718;28;20961;-74
2021/08/12 07:35:09;;;;;;;12.00;8.10;;;23.90;72.80;;;;;;5076533;28;20448;-74
2021/08/12 07:37:37;;;;;;;11.20;8.43;;;24.00;72.70;;;;;;5075971;28;21060;-74
2021/08/12 07:40:05;;;;;;;15.53;11.03;;;24.10;72.50;;;;;;5076413;28;20444;-74
2021/08/12 07:42:32;;;;;;;11.00;9.60;;;24.10;72.10;;;;;;5076386;28;20440;-74
2021/08/12 07:45:00;;;;;;;11.47;9.63;;;24.20;72.10;;;;;;5076334;28;20440;-74
2021/08/12 07:47:27;;;;;;;13.23;11.10;;;24.20;71.20;;;;;;5076173;28;20468;-74
2021/08/12 07:49:54;;;;;;;14.63;10.27;;;24.20;71.40;;;;;;5076190;28;20444;-74
2021/08/12 07:52:21;;;;;;;11.20;9.73;;;24.30;72.00;;;;;;5076182;28;20440;-74
2021/08/12 07:54:50;;;;;;;8.90;7.70;;;24.30;72.10;;;;;;5075879;28;20445;-74
2021/08/12 07:57:17;;;;;;;10.20;7.73;;;24.40;72.00;;;;;;5076062;28;20522;-74
2021/08/12 07:59:44;;;;;;;10.40;8.80;;;24.50;71.10;;;;;;5075966;28;20480;-74
2021/08/12 08:02:10;;;;;;;10.07;8.40;;;24.70;70.40;;;;;;5076001;28;20440;-74
2021/08/12 08:04:37;;;;;;;12.07;9.80;;;25.00;70.60;;;;;;5075958;28;20463;-74
2021/08/12 08:07:04;;;;;;;10.83;9.10;;;25.20;69.80;;;;;;5075540;28;20461;-74
2021/08/12 08:09:31;;;;;;;13.30;10.10;;;25.40;68.70;;;;;;5075832;28;20448;-74
2021/08/12 08:11:59;;;;;;;10.30;8.60;;;25.70;67.90;;;;;;5075843;28;20445;-74
2021/08/12 08:14:25;;;;;;;9.63;7.10;;;25.90;67.60;;;;;;5075850;28;20467;-74
2021/08/12 08:16:52;;;;;;;8.87;6.87;;;26.10;66.30;;;;;;5075686;28;20460;-74
2021/08/12 08:19:19;;;;;;;8.53;6.87;;;26.30;64.80;;;;;;5075398;28;20973;-74
2021/08/12 08:21:45;;;;;;;10.17;8.43;;;26.40;64.00;;;;;;5075502;28;20471;-74
2021/08/12 08:24:12;;;;;;;15.83;9.93;;;26.50;63.40;;;;;;5075650;28;20618;-74
2021/08/12 08:26:39;;;;;;;14.80;10.47;;;26.60;63.60;;;;;;5075201;28;20993;-74
2021/08/12 08:29:07;;;;;;;10.70;8.13;;;26.60;63.40;;;;;;5075487;28;20848;-74
2021/08/12 08:31:33;;;;;;;17.30;10.10;;;26.50;63.80;;;;;;5075489;28;20445;-74
2021/08/12 08:34:00;;;;;;;8.60;7.80;;;26.50;63.60;;;;;;5075109;28;20994;-74
2021/08/12 08:36:27;;;;;;;9.43;8.40;;;26.50;62.90;;;;;;5075344;28;20467;-74
2021/08/12 08:38:54;;;;;;;9.40;8.30;;;26.70;62.00;;;;;;5075224;28;20483;-74
2021/08/12 08:41:21;;;;;;;8.57;7.63;;;26.80;61.40;;;;;;5074963;28;20448;-74
2021/08/12 08:43:49;;;;;;;13.93;7.50;;;27.10;59.60;;;;;;5074931;28;20453;-74
2021/08/12 08:46:18;;;;;;;7.33;6.50;;;27.40;59.10;;;;;;5075109;28;20514;-74
2021/08/12 08:48:46;;;;;;;7.37;6.40;;;27.70;58.80;;;;;;5075078;28;20437;-74
2021/08/12 08:51:15;;;;;;;8.60;7.80;;;28.00;57.80;;;;;;5075055;28;20483;-74
2021/08/12 08:53:44;;;;;;;9.60;8.13;;;28.30;56.60;;;;;;5075017;28;20494;-74
2021/08/12 08:56:12;;;;;;;7.90;7.10;;;28.60;55.50;;;;;;5074911;28;20480;-74
2021/08/12 08:58:40;;;;;;;7.90;6.77;;;28.70;54.00;;;;;;5074826;28;20563;-74
2021/08/12 09:01:07;;;;;;;9.37;8.30;;;29.00;53.70;;;;;;5074894;28;20492;-74
2021/08/12 09:03:36;;;;;;;7.93;7.13;;;29.20;53.00;;;;;;5074767;28;20448;-74
2021/08/12 09:06:02;;;;;;;6.63;6.03;;;29.50;52.20;;;;;;5074766;28;20514;-74
2021/08/12 09:08:31;;;;;;;8.20;6.07;;;29.70;52.40;;;;;;5074710;28;20440;-74
2021/08/12 09:10:57;;;;;;;7.27;6.20;;;29.90;52.00;;;;;;5074693;28;20814;-74
2021/08/12 09:13:24;;;;;;;6.47;5.87;;;30.20;50.90;;;;;;5074295;28;20919;-74
2021/08/12 09:15:51;;;;;;;8.13;7.00;;;30.40;49.80;;;;;;5074488;28;20476;-75
2021/08/12 09:18:23;;;;;;;7.73;6.60;;;30.60;49.20;;;;;;5074496;28;20472;-75
2021/08/12 09:20:52;;;;;;;8.47;5.90;;;30.70;49.40;;;;;;5074173;28;20452;-74
2021/08/12 09:23:24;;;;;;;5.73;4.60;;;30.90;48.60;;;;;;5074115;28;20456;-75
2021/08/12 09:25:51;;;;;;;5.77;4.87;;;31.00;45.30;;;;;;5073990;28;20464;-74
2021/08/12 09:28:20;;;;;;;4.67;4.17;;;31.00;43.60;;;;;;5074343;28;20436;-74
2021/08/12 09:31:05;;;;;;;8.03;5.00;;;31.00;42.80;;;;;;5074274;28;20441;-75
2021/08/12 09:33:33;;;;;;;6.93;4.43;;;31.10;42.00;;;;;;5073978;28;20451;-74
2021/08/12 09:36:03;;;;;;;5.03;4.40;;;31.10;42.10;;;;;;5074140;28;20471;-75
2021/08/12 09:38:30;;;;;;;6.57;4.20;;;31.00;42.30;;;;;;5073778;28;20478;-75
2021/08/12 09:40:58;;;;;;;8.53;5.70;;;31.00;43.60;;;;;;5074095;28;20448;-74
2021/08/12 09:43:30;;;;;;;5.60;5.00;;;31.00;44.00;;;;;;5073760;28;20811;-74
2021/08/12 09:45:57;;;;;;;6.00;4.60;;;31.00;42.30;;;;;;5074417;28;20500;-74
2021/08/12 09:48:24;;;;;;;9.00;5.57;;;30.90;41.50;;;;;;5073985;28;20466;-75
2021/08/12 09:51:00;;;;;;;11.57;5.13;;;30.80;41.80;;;;;;5073920;28;20441;-74
2021/08/12 09:53:29;;;;;;;4.43;4.00;;;30.80;43.00;;;;;;5073914;28;20428;-75
2021/08/12 09:55:57;;;;;;;6.43;4.47;;;30.80;42.70;;;;;;5073156;28;20460;-74
2021/08/12 09:58:34;;;;;;;6.20;5.50;;;30.80;42.70;;;;;;5073723;28;20437;-74
2021/08/12 10:01:16;;;;;;;5.67;5.17;;;30.80;42.30;;;;;;5073839;28;20433;-74
2021/08/12 10:03:44;;;;;;;6.93;4.80;;;30.70;43.20;;;;;;5073724;28;20440;-75
2021/08/12 10:06:20;;;;;;;7.17;4.70;;;30.60;42.40;;;;;;5073693;28;20464;-74
2021/08/12 10:08:48;;;;;;;5.33;4.67;;;30.50;42.10;;;;;;5073717;28;20433;-74
2021/08/12 10:11:17;;;;;;;5.50;4.53;;;30.50;43.90;;;;;;5073638;28;20448;-74
2021/08/12 10:13:45;;;;;;;7.73;3.70;;;30.50;42.60;;;;;;5073716;28;20447;-74
2021/08/12 10:16:14;;;;;;;4.90;4.30;;;30.50;42.90;;;;;;5073598;28;20839;-74
2021/08/12 10:18:43;;;;;;;5.40;4.10;;;30.50;42.80;;;;;;5073524;28;20476;-74
2021/08/12 10:21:11;;;;;;;5.93;4.67;;;30.60;43.00;;;;;;5073597;28;20429;-74
2021/08/12 10:23:39;;;;;;;6.50;5.03;;;30.70;42.00;;;;;;5073301;28;20488;-74
2021/08/12 10:26:09;;;;;;;6.47;4.40;;;30.70;41.30;;;;;;5073164;28;20466;-74
2021/08/12 10:28:38;;;;;;;5.23;4.77;;;30.80;41.60;;;;;;5073490;28;20455;-74
2021/08/12 10:31:06;;;;;;;5.20;4.63;;;30.90;41.40;;;;;;5073129;28;20810;-74
2021/08/12 10:33:34;;;;;;;7.73;5.10;;;31.10;41.30;;;;;;5073416;28;20460;-74
2021/08/12 10:36:02;;;;;;;5.70;4.70;;;31.30;42.00;;;;;;5073327;28;20468;-74
2021/08/12 10:38:29;;;;;;;6.40;4.97;;;31.50;40.00;;;;;;5073357;28;20444;-74
2021/08/12 10:40:56;;;;;;;5.30;4.83;;;31.60;40.20;;;;;;5073394;28;20448;-74
2021/08/12 10:43:27;;;;;;;7.10;4.87;;;31.70;39.50;;;;;;5073428;28;20450;-74
2021/08/12 10:45:56;;;;;;;9.03;5.70;;;31.80;39.70;;;;;;5073338;28;20471;-74
2021/08/12 10:48:24;;;;;;;10.30;5.93;;;32.30;39.90;;;;;;5073090;28;20474;-75
2021/08/12 10:51:01;;;;;;;5.50;5.00;;;32.70;38.70;;;;;;5073101;28;21032;-75
2021/08/12 10:53:28;;;;;;;7.30;5.87;;;32.90;37.60;;;;;;5073267;28;20438;-75
2021/08/12 10:56:15;;;;;;;6.87;5.00;;;32.90;37.80;;;;;;5072861;28;20974;-75
2021/08/12 10:58:51;;;;;;;6.60;5.83;;;32.90;39.50;;;;;;5073263;28;20424;-74
2021/08/12 11:01:30;;;;;;;7.00;5.70;;;32.70;36.70;;;;;;5073193;28;20443;-74
2021/08/12 11:04:01;;;;;;;6.30;5.73;;;32.40;35.50;;;;;;5073339;28;20447;-75
2021/08/12 11:06:40;;;;;;;6.17;5.67;;;32.20;37.20;;;;;;5074947;28;20518;-75
2021/08/12 11:09:08;;;;;;;7.27;5.47;;;31.90;39.10;;;;;;5077149;28;20439;-75
2021/08/12 11:12:01;;;;;;;6.07;5.57;;;31.60;39.20;;;;;;5077082;28;20483;-74
2021/08/12 11:14:59;;;;;;;6.47;5.73;;;31.30;40.70;;;;;;5077119;28;20848;-75
2021/08/12 11:17:47;;;;;;;6.40;5.80;;;31.10;40.90;;;;;;5076582;28;20989;-75
2021/08/12 11:20:30;;;;;;;5.23;4.73;;;30.90;42.00;;;;;;5076466;28;20507;-75
2021/08/12 11:22:56;;;;;;;8.40;5.50;;;30.70;42.10;;;;;;5076493;28;20487;-74
2021/08/12 11:25:56;;;;;;;5.80;5.30;;;30.50;41.80;;;;;;5076816;28;20440;-74
2021/08/12 11:28:51;;;;;;;6.53;5.70;;;30.50;43.60;;;;;;5076774;28;20424;-75
2021/08/12 11:31:47;;;;;;;8.10;5.40;;;30.40;43.50;;;;;;5076649;28;20445;-74
2021/08/12 11:34:22;;;;;;;6.07;5.47;;;30.50;43.60;;;;;;5074526;28;20456;-74
2021/08/12 11:37:05;;;;;;;5.43;4.77;;;30.50;42.50;;;;;;5076175;28;20989;-75
2021/08/12 11:39:32;;;;;;;8.30;5.30;;;30.70;42.40;;;;;;5076478;28;20468;-73
2021/08/12 11:41:59;;;;;;;6.90;5.70;;;31.10;41.20;;;;;;5076419;28;20445;-74
2021/08/12 11:44:27;;;;;;;7.90;5.23;;;31.50;40.40;;;;;;5076447;28;20444;-74
2021/08/12 11:46:54;;;;;;;8.33;5.53;;;32.00;38.70;;;;;;5076288;28;20469;-73
2021/08/12 11:49:22;;;;;;;5.77;5.27;;;32.50;38.80;;;;;;5075988;28;20927;-74
2021/08/12 11:51:49;;;;;;;5.57;4.80;;;33.10;39.20;;;;;;5076283;28;20444;-74
2021/08/12 11:54:26;;;;;;;7.47;6.10;;;34.20;37.70;;;;;;5076221;28;20804;-75
2021/08/12 11:56:53;;;;;;;7.13;5.70;;;35.20;32.70;;;;;;5076160;28;20499;-74
2021/08/12 11:59:24;;;;;;;5.60;5.07;;;36.00;31.50;;;;;;5076093;28;20483;-73
2021/08/12 12:01:52;;;;;;;7.23;5.03;;;36.80;30.80;;;;;;5076132;28;20440;-75
2021/08/12 12:04:20;;;;;;;6.30;5.70;;;37.80;30.70;;;;;;5076060;28;20202;-75
2021/08/12 12:06:51;;;;;;;6.00;5.22;;;38.70;29.00;;;;;;5075652;28;20221;-74
2021/08/12 12:09:23;;;;;;;5.07;4.68;;;39.60;26.00;;;;;;5076049;28;20178;-74
2021/08/12 12:11:55;;;;;;;6.43;5.82;;;40.20;26.10;;;;;;5075935;28;20198;-74
2021/08/12 12:14:22;;;;;;;5.93;5.35;;;40.60;25.50;;;;;;5075946;28;20205;-75
2021/08/12 12:17:10;;;;;;;6.28;5.78;;;41.10;24.30;;;;;;5075761;28;20225;-74
2021/08/12 12:19:38;;;;;;;5.78;5.32;;;41.20;24.10;;;;;;5075294;28;20710;-74
2021/08/12 12:22:14;;;;;;;9.52;6.32;;;41.20;24.00;;;;;;5075627;28;20213;-76
2021/08/12 12:24:47;;;;;;;6.95;6.28;;;41.30;23.50;;;;;;5075695;28;20603;-75
2021/08/12 12:27:19;;;;;;;6.78;6.18;;;41.30;23.00;;;;;;5075190;28;20225;-74
2021/08/12 12:29:46;;;;;;;6.05;5.50;;;41.70;22.60;;;;;;5075579;28;20182;-76
2021/08/12 12:32:15;;;;;;;6.03;5.43;;;42.30;22.70;;;;;;5075535;28;20620;-76
2021/08/12 12:34:52;;;;;;;5.97;5.38;;;42.70;23.10;;;;;;5075561;28;20186;-76
2021/08/12 12:37:21;;;;;;;6.07;5.57;;;43.20;22.10;;;;;;5075343;28;20316;-74
2021/08/12 12:39:48;;;;;;;5.68;5.18;;;43.90;21.10;;;;;;5075324;28;20202;-74
2021/08/12 12:42:15;;;;;;;5.47;5.07;;;44.50;19.30;;;;;;5075051;28;20202;-74
2021/08/12 12:44:56;;;;;;;5.75;5.05;;;44.70;19.40;;;;;;5075244;28;20206;-74
2021/08/12 12:47:24;;;;;;;5.40;5.00;;;44.50;18.50;;;;;;5075229;28;20298;-75
2021/08/12 12:49:51;;;;;;;7.63;4.93;;;44.10;19.60;;;;;;5075151;28;20198;-75